Tiempo atmosférico en la estación meteorológica de Mérida, Badajoz (220 m.)



Fecha
DESCASC
Temp. máxima en grados centígrados (hora)
DESCASC
Temp. mínima en grados centígrados (hora)
DESCASC
Temp. media en grados centígrados
DESCASC
Racha de viento máxima en m/sg (hora)
DESCASC
Velocidad máxima media en intervalos de 10 minutos(hora)
DESCASC
Precipitaciones diarias en mm
DESCASC
Precipitaciones de 00:00 a 06:00 en mm
DESCASC
Precipitaciones de 06:00 a 12:00 en mm
DESCASC
Precipitaciones de 12:00 a 18:00 en mm
DESCASC
Precipitaciones de 18:00 a 24:00 en mm
DESCASC
14-12-2019 15.3 (15:20) 10.1 (03:20) 12.7 6.94 (01:50) 4.17 (01:50) 0 0 0 0 0
13-12-2019 17.8 (15:00) 10.9 (02:20) 14.3 11.11 (06:20) 7.22 (05:20) 0.2 0.2 0 0 0
12-12-2019 13.7 (13:50) 2.8 (01:50) 8.2 12.5 (14:40) 7.22 (14:40) 0 0 0 0 0
11-12-2019 14.9 (16:20) 0.7 (00:00) 7.8 6.39 (16:30) 3.61 (16:30) 0.5 0 0.5 0 0
10-12-2019 10.8 (10:50) 0.6 (00:00) 5.7 5.28 (11:20) 2.78 (11:20) 0.1 0.1 0 0 0
09-12-2019 17.5 (15:20) 3.2 (00:00) 10.4 3.33 (05:30) 1.67 (23:40) 0.1 0.1 0 0 0
08-12-2019 13.4 (13:10) 1.6 (00:00) 7.5 3.89 (16:10) 2.5 (01:40) 1 0 0 0.6 0.4
07-12-2019 18 (16:10) 1.8 (00:00) 9.9 3.89 (10:10) 2.22 (10:00) 0 0 0 0 0
06-12-2019 17.6 (15:40) 4.2 (00:00) 10.9 6.39 (12:50) 3.61 (12:50) 0 0 0 0 0
05-12-2019 17.4 (14:50) 3.7 (00:00) 10.5 7.5 (15:00) 4.17 (17:00) 0 0 0 0 0
04-12-2019 16.9 (15:00) 5.6 (00:00) 11.2 5.28 (05:20) 3.33 (05:20) 0 0 0 0 0
03-12-2019 16.5 (14:40) 4.4 (00:00) 10.5 7.5 (11:00) 3.89 (11:10) 0 0 0 0 0
02-12-2019 15.3 (15:50) 7.2 (00:00) 11.3 10 (14:30) 5.83 (12:10) 0.1 0 0.1 0 0
01-12-2019 16.5 (13:40) 7.8 (00:00) 12.2 8.06 (09:10) 4.44 (10:30) 7.9 0 1.2 6.3 0.4
30-11-2019 19.3 (13:30) 10.2 (00:00) 14.7 11.94 (19:30) 6.11 (19:30) 0.8 0 0 0 0.8
29-11-2019 18.2 (14:20) 12.8 (00:00) 15.5 5 (15:00) 2.78 (14:50) 0 0 0 0 0
28-11-2019 18.1 (13:50) 7.5 (00:00) 12.8 6.94 (15:00) 3.61 (14:30) 0 0 0 0 0
27-11-2019 18.3 (14:00) 9.8 (00:00) 14 8.33 (14:40) 5.56 (14:40) 1.5 1.4 0.1 0 0
26-11-2019 18.8 (13:10) 10.2 (00:00) 14.5 8.61 (19:30) 4.17 (14:10) 5.9 0.3 2.2 2.2 1.2
25-11-2019 20 (13:50) 12.5 (00:00) 16.3 8.61 (14:00) 5 (13:50) 3 1.7 1.3 0 0
24-11-2019 17 (14:30) 2.1 (00:00) 9.5 7.78 (22:40) 3.89 (14:20) 0 0 0 0 0
23-11-2019 16.6 (15:20) 7 (00:00) 11.8 15.28 (00:10) 8.89 (00:30) 0.1 0.1 0 0 0
22-11-2019 17.6 (15:30) 9.8 (00:00) 13.7 15.83 (12:20) 9.17 (11:50) 24.4 0.5 15.8 7.4 0.7
21-11-2019 15.9 (14:20) 8.2 (00:00) 12 4.72 (02:10) 2.22 (02:30) 4.9 0 2.5 2.4 0
20-11-2019 12.8 (16:20) 5.2 (00:00) 9 6.94 (10:50) 4.17 (09:40) 8 0 6.6 1 0.4
19-11-2019 12.6 (15:40) 1.2 (00:00) 6.9 3.33 (23:10) 2.5 (23:10) 0 0 0 0 0
18-11-2019 16.6 (14:10) 3.8 (00:00) 10.2 5.83 (00:10) 3.61 (09:20) 0 0 0 0 0
17-11-2019 15.9 (17:40) 4.4 (00:00) 10.1 10 (21:30) 5.83 (21:30) 15.8 0.3 3.3 10.1 2.1
16-11-2019 15.1 (15:20) 0.3 (00:00) 7.7 7.78 (16:50) 4.17 (16:40) 0 0 0 0 0
15-11-2019 14.3 (15:00) 2.5 (00:00) 8.4 8.61 (12:30) 4.72 (09:40) 0 0 0 0 0

Gráficas

Temp. máximas Temp. mínimas Temp. medias Precipitaciones Rachas de viento máximas Velocidades máximas media en intervalos de 10 minutos

Datos horarios

Fecha y hora oficial Temperatura (ºC) Velocidad del viento (km/h) Dirección del viento Racha (km/h) Dirección de racha Precipitación (mm) Presión (hPa) Tendencia (hPa) Humedad (%)
2019-12-14 23:00:00 12.9 5 Sudoeste 14 Sudoeste 0 -- -- 76
2019-12-14 22:00:00 12.9 4 Sudoeste 14 Sudoeste 0 -- -- 76
2019-12-14 21:00:00 13.5 6 Sudoeste 17 Oeste 0 -- -- 73
2019-12-14 20:00:00 13.4 4 Sudoeste 9 Sudoeste 0 -- -- 72
2019-12-14 19:00:00 13.3 3 Sudoeste 10 Sur 0 -- -- 71
2019-12-14 18:00:00 13.8 4 Sudoeste 14 Sudoeste 0 -- -- 69
2019-12-14 17:00:00 14.5 8 Sudoeste 17 Sudoeste 0 -- -- 65
2019-12-14 16:00:00 14.8 9 Oeste 21 Oeste 0 -- -- 65
2019-12-14 15:00:00 14.3 10 Oeste 21 Sudoeste 0 -- -- 68
2019-12-14 14:00:00 14.3 12 Oeste 21 Oeste 0 -- -- 68
2019-12-14 13:00:00 14.7 11 Oeste 21 Oeste 0 -- -- 67
2019-12-14 12:00:00 13.9 9 Oeste 22 Sudoeste 0 -- -- 73
2019-12-14 11:00:00 13.6 11 Sudoeste 19 Sudoeste 0 -- -- 75
2019-12-14 10:00:00 11.6 5 Sudoeste 17 Sudoeste 0 -- -- 89
2019-12-14 09:00:00 10.7 12 Oeste 22 Oeste 0 -- -- 88
2019-12-14 08:00:00 11.6 6 Oeste 14 Oeste 0 -- -- 84
2019-12-14 07:00:00 11.4 7 Sudoeste 17 Sudoeste 0 -- -- 86
2019-12-14 06:00:00 11.8 10 Sudoeste 21 Sudoeste 0 -- -- 85
2019-12-14 05:00:00 11.3 8 Sudoeste 18 Sudoeste 0 -- -- 88
2019-12-14 04:00:00 10.4 7 Sudoeste 18 Sudoeste 0 -- -- 89
2019-12-14 03:00:00 11 9 Sudoeste 22 Oeste 0 -- -- 85
2019-12-14 02:00:00 12.7 13 Sudoeste 25 Sudoeste 0 -- -- 83
2019-12-14 01:00:00 12.7 13 Oeste 24 Oeste 0 -- -- 84
2019-12-14 00:00:00 12.7 14 Oeste 25 Oeste 0 -- -- 85
2019-12-13 23:00:00 12.6 14 Oeste 27 Oeste 0 -- -- 85
2019-12-13 22:00:00 12.8 17 Oeste 26 Oeste 0 -- -- 86
2019-12-13 21:00:00 12.1 8 Sudoeste 18 Sudoeste 0 -- -- 89
2019-12-13 20:00:00 12.6 9 Sudoeste 20 Sudoeste 0 -- -- 86
2019-12-13 19:00:00 13 11 Sudoeste 20 Sudoeste 0 -- -- 80
2019-12-13 18:00:00 14.6 8 Oeste 25 Sudoeste 0 -- -- 69
2019-12-13 17:00:00 15.5 14 Oeste 33 Oeste 0 -- -- 62
2019-12-13 16:00:00 16.7 15 Oeste 31 Oeste 0 -- -- 58
2019-12-13 15:00:00 16.8 16 Oeste 37 Oeste 0 -- -- 58
2019-12-13 14:00:00 16.5 17 Oeste 35 Oeste 0 -- -- 60
2019-12-13 13:00:00 16.8 21 Oeste 38 Sudoeste 0 -- -- 61
2019-12-13 12:00:00 15.1 21 Oeste 35 Oeste 0 -- -- 73
2019-12-13 11:00:00 13.8 21 Oeste 35 Oeste 0 -- -- 78
2019-12-13 10:00:00 13.2 23 Oeste 35 Oeste 0 -- -- 82
2019-12-13 09:00:00 12.9 19 Oeste 31 Oeste 0 -- -- 83
2019-12-13 08:00:00 12.7 20 Oeste 39 Oeste 0 -- -- 82
2019-12-13 07:00:00 12.6 24 Oeste 40 Sudoeste 0 -- -- 80
2019-12-13 06:00:00 12.5 22 Oeste 37 Oeste 0 -- -- 80
2019-12-13 05:00:00 12.8 22 Oeste 38 Oeste 0 -- -- 84
2019-12-13 04:00:00 13.5 20 Oeste 39 Oeste 0 -- -- 83
2019-12-13 03:00:00 13.5 18 Sudoeste 33 Oeste 0.1 -- -- 85
2019-12-13 02:00:00 13.9 17 Sudoeste 34 Sudoeste 0 -- -- 92
2019-12-13 01:00:00 13.1 16 Sudoeste 33 Sudoeste 0.1 -- -- 91
2019-12-13 00:00:00 12.6 18 Sudoeste 35 Sudoeste 0 -- -- 91
2019-12-12 23:00:00 12.8 20 Sudoeste 34 Sudoeste 0 -- -- 88
2019-12-12 22:00:00 12.6 18 Sudoeste 32 Oeste 0 -- -- 88
2019-12-12 21:00:00 12.1 16 Sudoeste 36 Sudoeste 0 -- -- 89
2019-12-12 20:00:00 12.2 19 Sudoeste 37 Sudoeste 0 -- -- 85
2019-12-12 19:00:00 11.8 20 Sudoeste 38 Sudoeste 0 -- -- 85
2019-12-12 18:00:00 12.5 24 Oeste 42 Oeste 0 -- -- 75
2019-12-12 17:00:00 13.2 21 Oeste 32 Oeste 0 -- -- 67
2019-12-12 16:00:00 12.8 13 Sudoeste 38 Oeste 0 -- -- 72
2019-12-12 15:00:00 12.8 24 Oeste 45 Oeste 0 -- -- 66
2019-12-12 14:00:00 13.3 23 Oeste 37 Sudoeste 0 -- -- 65
2019-12-12 13:00:00 12.3 15 Oeste 28 Oeste 0 -- -- 72
2019-12-12 12:00:00 10.3 11 Oeste 26 Oeste 0 -- -- 78
2019-12-12 11:00:00 9.6 9 Oeste 18 Oeste 0 -- -- 84
2019-12-12 10:00:00 9 4 Noroeste 17 Oeste 0 -- -- 84
2019-12-12 09:00:00 6.5 9 Oeste 17 Oeste 0 -- -- 91
2019-12-12 08:00:00 6.3 6 Oeste 14 Oeste 0 -- -- 91
2019-12-12 07:00:00 5.6 6 Oeste 13 Sudoeste 0 -- -- 91
2019-12-12 06:00:00 5.3 4 Sudoeste 13 Oeste 0 -- -- 91
2019-12-12 05:00:00 5.2 5 Sudoeste 9 Oeste 0 -- -- 90
2019-12-12 04:00:00 4.3 2 Oeste 11 Sudoeste 0 -- -- 88
2019-12-12 03:00:00 4.7 5 Sudoeste 12 Sudoeste 0 -- -- 85
2019-12-12 02:00:00 3.2 2 Oeste 11 Sudoeste 0 -- -- 88
2019-12-12 01:00:00 3.2 4 Sudoeste 12 Sudoeste 0 -- -- 85
2019-12-12 00:00:00 4.5 5 Sudoeste 11 Oeste 0 -- -- 80
2019-12-11 23:00:00 5.1 5 Sudoeste 11 Sudoeste 0 -- -- 75
2019-12-11 22:00:00 5.5 5 Sur 9 Sur 0 -- -- 72
2019-12-11 21:00:00 5.8 2 Oeste 12 Oeste 0 -- -- 67
2019-12-11 20:00:00 8.4 6 Noroeste 13 Noroeste 0 -- -- 60
2019-12-11 19:00:00 10.6 5 Noroeste 13 Noroeste 0 -- -- 51
2019-12-11 18:00:00 11.1 4 Oeste 22 Noroeste 0 -- -- 49
2019-12-11 17:00:00 14 10 Noroeste 23 Oeste 0 -- -- 46
2019-12-11 16:00:00 14.4 8 Noroeste 21 Noroeste 0 -- -- 53
2019-12-11 15:00:00 14 5 Noroeste 18 Oeste 0 -- -- 64
2019-12-11 14:00:00 12.3 9 Oeste 17 Noroeste 0 -- -- 82
2019-12-11 13:00:00 8.9 9 Oeste 16 Oeste 0 -- -- 92
2019-12-11 12:00:00 7.6 7 Noroeste 15 Noroeste 0.1 -- -- 93
2019-12-11 11:00:00 8.3 3 Sudoeste 10 Oeste 0.4 -- -- 94
2019-12-11 10:00:00 7.7 3 Oeste 8 Oeste 0 -- -- 93
2019-12-11 09:00:00 5.9 0 Calma 5 Noroeste 0 -- -- 93
2019-12-11 08:00:00 5.8 0 Calma 3 Norte 0 -- -- 93
2019-12-11 07:00:00 3.5 2 Este 4 Nordeste 0 -- -- 93
2019-12-11 06:00:00 5 5 Este 6 Este 0 -- -- 93
2019-12-11 05:00:00 5.1 0 Calma 4 Este 0 -- -- 93
2019-12-11 04:00:00 5 0 Calma 6 Este 0 -- -- 93
2019-12-11 03:00:00 5.1 4 Este 6 Este 0 -- -- 93
2019-12-11 02:00:00 4.7 0 Calma 5 Sudeste 0 -- -- 93
2019-12-11 01:00:00 3.2 0 Calma 4 Oeste 0 -- -- 93
2019-12-11 00:00:00 3.3 0 Calma 0 Calma 0 -- -- 93
2019-12-10 23:00:00 4.6 0 Calma 3 Sudeste 0 -- -- 92
2019-12-10 22:00:00 6 2 Sur 7 Oeste 0 -- -- 92
2019-12-10 21:00:00 5.6 0 Calma 5 Noroeste 0 -- -- 92
2019-12-10 20:00:00 6 3 Este 4 Este 0 -- -- 91
2019-12-10 19:00:00 7.1 2 Este 4 Este 0 -- -- 87
2019-12-10 18:00:00 8.7 3 Sudeste 5 Sudeste 0 -- -- 80
2019-12-10 17:00:00 10 2 Sudeste 6 Sudeste 0 -- -- 72
2019-12-10 16:00:00 9.6 0 Calma 8 Este 0 -- -- 74
2019-12-10 15:00:00 9.1 3 Nordeste 9 Nordeste 0 -- -- 76
2019-12-10 14:00:00 9.1 5 Nordeste 13 Norte 0 -- -- 76
2019-12-10 13:00:00 9.8 5 Nordeste 14 Nordeste 0 -- -- 75
2019-12-10 12:00:00 10.2 9 Este 19 Este 0 -- -- 76
2019-12-10 11:00:00 9.1 9 Este 17 Este 0 -- -- 86
2019-12-10 10:00:00 7.3 3 Nordeste 7 Este 0 -- -- 93
2019-12-10 09:00:00 4.3 0 Calma 7 Este 0 -- -- 93
2019-12-10 08:00:00 5.5 5 Este 9 Este 0 -- -- 94
2019-12-10 07:00:00 6.1 6 Este 12 Este 0 -- -- 93
2019-12-10 06:00:00 6.3 8 Este 14 Sudeste 0.1 -- -- 93
2019-12-10 05:00:00 6.2 6 Este 11 Este 0 -- -- 93
2019-12-10 04:00:00 4.6 2 Este 8 Este 0 -- -- 93
2019-12-10 03:00:00 4.3 6 Este 9 Este 0 -- -- 93
2019-12-10 02:00:00 3.6 4 Este 7 Este 0 -- -- 93
2019-12-10 01:00:00 5.2 5 Este 8 Este 0 -- -- 93
2019-12-10 00:00:00 6.3 5 Este 7 Este 0 -- -- 93
2019-12-09 23:00:00 6.6 0 Calma 6 Este 0 -- -- 93
2019-12-09 22:00:00 5.5 0 Calma 6 Este 0 -- -- 92
2019-12-09 21:00:00 8.5 4 Este 8 Este 0 -- -- 89
2019-12-09 20:00:00 9.3 3 Nordeste 6 Sudeste 0 -- -- 86
2019-12-09 19:00:00 8.9 2 Sudeste 5 Sudeste 0 -- -- 82
2019-12-09 18:00:00 11.7 5 Sur 6 Sur 0 -- -- 68
2019-12-09 17:00:00 14.9 2 Sudoeste 8 Sudoeste 0 -- -- 57
2019-12-09 16:00:00 15.4 2 Oeste 9 Sudoeste 0 -- -- 55
2019-12-09 15:00:00 15.4 4 Noroeste 10 Noroeste 0 -- -- 58
2019-12-09 14:00:00 14.7 2 Norte 9 Norte 0 -- -- 65
2019-12-09 13:00:00 14.7 4 Oeste 9 Noroeste 0 -- -- 66
2019-12-09 12:00:00 12.7 2 Noroeste 7 Noroeste 0 -- -- 80
2019-12-09 11:00:00 12.7 0 Calma 6 Noroeste 0 -- -- 89
2019-12-09 10:00:00 13 2 Noroeste 5 Norte 0 -- -- 92
2019-12-09 09:00:00 9.4 2 Noroeste 5 Oeste 0 -- -- 92
2019-12-09 08:00:00 10.4 2 Oeste 7 Sudoeste 0 -- -- 92
2019-12-09 07:00:00 10.6 0 Calma 5 Noroeste 0 -- -- 92
2019-12-09 06:00:00 10.1 4 Oeste 12 Noroeste 0 -- -- 92
2019-12-09 05:00:00 11.7 4 Oeste 11 Noroeste 0.1 -- -- 93
2019-12-09 04:00:00 12.6 2 Oeste 5 Noroeste 0 -- -- 93
2019-12-09 03:00:00 10.9 2 Noroeste 4 Oeste 0 -- -- 93
2019-12-09 02:00:00 11.6 0 Calma 3 Sudoeste 0 -- -- 93
2019-12-09 01:00:00 11.5 0 Calma 3 Noroeste 0 -- -- 93
2019-12-09 00:00:00 11.2 0 Calma 5 Norte 0.1 -- -- 93
2019-12-08 23:00:00 11.3 0 Calma 3 Noroeste 0 -- -- 92
2019-12-08 22:00:00 11 0 Calma 3 Oeste 0.2 -- -- 92
2019-12-08 21:00:00 11.1 2 Noroeste 5 Noroeste 0 -- -- 92
2019-12-08 20:00:00 10.9 0 Calma 4 Noroeste 0 -- -- 92
2019-12-08 19:00:00 10.7 0 Calma 8 Sudoeste 0.1 -- -- 92
2019-12-08 18:00:00 10.9 5 Sudoeste 10 Sudoeste 0.5 -- -- 92
2019-12-08 17:00:00 11.3 5 Sudoeste 14 Oeste 0.1 -- -- 85
2019-12-08 16:00:00 12.7 6 Sudoeste 12 Sudoeste 0 -- -- 74
2019-12-08 15:00:00 12.2 4 Oeste 10 Oeste 0 -- -- 72
2019-12-08 14:00:00 12.6 4 Oeste 10 Oeste 0 -- -- 70
2019-12-08 13:00:00 12.7 0 Calma 7 Sudeste 0 -- -- 69
2019-12-08 12:00:00 9.4 4 Este 9 Este 0 -- -- 80
2019-12-08 11:00:00 8 5 Este 9 Nordeste 0 -- -- 83
2019-12-08 10:00:00 6.9 0 Calma 7 Este 0 -- -- 88
2019-12-08 09:00:00 4.5 5 Este 12 Este 0 -- -- 95
2019-12-08 08:00:00 4.4 5 Este 9 Este 0 -- -- 95
2019-12-08 07:00:00 6.1 6 Este 9 Este 0 -- -- 95
2019-12-08 06:00:00 3.5 4 Este 7 Este 0 -- -- 95
2019-12-08 05:00:00 4 3 Este 6 Este 0 -- -- 95
2019-12-08 04:00:00 3.9 0 Calma 4 Oeste 0 -- -- 93
2019-12-08 03:00:00 4.1 0 Calma 6 Este 0 -- -- 93
2019-12-08 02:00:00 6.1 4 Este 11 Este 0 -- -- 94
2019-12-08 01:00:00 4 3 Sudeste 4 Sudeste 0 -- -- 94
2019-12-08 00:00:00 4.7 0 Calma 3 Oeste 0 -- -- 93
2019-12-07 23:00:00 5.2 0 Calma 4 Nordeste 0 -- -- 92
2019-12-07 22:00:00 6.3 0 Calma 5 Este 0 -- -- 91
2019-12-07 21:00:00 6.1 0 Calma 5 Este 0 -- -- 90
2019-12-07 20:00:00 7.6 3 Este 6 Este 0 -- -- 87
2019-12-07 19:00:00 8.7 2 Sudeste 4 Sur 0 -- -- 80
2019-12-07 18:00:00 12.6 4 Sudeste 8 Sudeste 0 -- -- 64
2019-12-07 17:00:00 15.2 6 Sudeste 11 Sudeste 0 -- -- 53
2019-12-07 16:00:00 16.7 3 Sudeste 10 Este 0 -- -- 48
2019-12-07 15:00:00 16 4 Este 11 Este 0 -- -- 48
2019-12-07 14:00:00 15.4 3 Este 11 Nordeste 0 -- -- 49
2019-12-07 13:00:00 14.8 5 Nordeste 11 Este 0 -- -- 56
2019-12-07 12:00:00 13.3 4 Nordeste 8 Nordeste 0 -- -- 60
2019-12-07 11:00:00 10.3 4 Este 14 Este 0 -- -- 72
2019-12-07 10:00:00 7.7 8 Este 12 Este 0 -- -- 84
2019-12-07 09:00:00 4.2 3 Este 6 Sudeste 0 -- -- 94
2019-12-07 08:00:00 4.9 2 Nordeste 9 Este 0 -- -- 95
2019-12-07 07:00:00 3.2 0 Calma 7 Este 0 -- -- 95
2019-12-07 06:00:00 4 0 Calma 5 Este 0 -- -- 95
2019-12-07 05:00:00 4.2 4 Este 7 Sudeste 0 -- -- 93
2019-12-07 04:00:00 3.8 0 Calma 6 Sudeste 0 -- -- 93
2019-12-07 03:00:00 4.2 0 Calma 5 Este 0 -- -- 92
2019-12-07 02:00:00 7.4 5 Sudeste 9 Este 0 -- -- 90
2019-12-07 01:00:00 4.7 0 Calma 4 Oeste 0 -- -- 93
2019-12-07 00:00:00 5.6 2 Sudeste 5 Sudeste 0 -- -- 93
2019-12-06 23:00:00 5.5 0 Calma 5 Sur 0 -- -- 92
2019-12-06 22:00:00 5.7 0 Calma 4 Sudeste 0 -- -- 92
2019-12-06 21:00:00 7.2 2 Oeste 5 Oeste 0 -- -- 89
2019-12-06 20:00:00 7.3 2 Noroeste 5 Noroeste 0 -- -- 86
2019-12-06 19:00:00 12.1 5 Este 9 Este 0 -- -- 68
2019-12-06 18:00:00 13.7 4 Nordeste 12 Nordeste 0 -- -- 54
2019-12-06 17:00:00 16.3 7 Este 17 Este 0 -- -- 48
2019-12-06 16:00:00 17.2 9 Nordeste 17 Nordeste 0 -- -- 45
2019-12-06 15:00:00 16.9 8 Nordeste 19 Nordeste 0 -- -- 48
2019-12-06 14:00:00 16.3 9 Nordeste 19 Este 0 -- -- 50
2019-12-06 13:00:00 15.1 10 Nordeste 23 Este 0 -- -- 54
2019-12-06 12:00:00 13.8 12 Nordeste 21 Nordeste 0 -- -- 59
2019-12-06 11:00:00 13 5 Este 14 Nordeste 0 -- -- 66
2019-12-06 10:00:00 10.6 6 Este 11 Este 0 -- -- 74
2019-12-06 09:00:00 6.4 0 Calma 12 Este 0 -- -- 90
2019-12-06 08:00:00 7.1 8 Este 12 Este 0 -- -- 90
2019-12-06 07:00:00 5.8 0 Calma 8 Este 0 -- -- 90
2019-12-06 06:00:00 8 7 Este 14 Nordeste 0 -- -- 84
2019-12-06 05:00:00 9 9 Nordeste 15 Nordeste 0 -- -- 82
2019-12-06 04:00:00 8.5 5 Este 10 Este 0 -- -- 85
2019-12-06 03:00:00 6 0 Calma 9 Nordeste 0 -- -- 90
2019-12-06 02:00:00 8.1 3 Nordeste 11 Nordeste 0 -- -- 84
2019-12-06 01:00:00 8 6 Sudeste 10 Sur 0 -- -- 84
2019-12-06 00:00:00 7.9 5 Sudeste 8 Sudeste 0 -- -- 83
2019-12-05 23:00:00 9.1 3 Este 18 Nordeste 0 -- -- 72
2019-12-05 22:00:00 12.2 9 Nordeste 14 Nordeste 0 -- -- 66
2019-12-05 21:00:00 10.6 3 Nordeste 12 Nordeste 0 -- -- 67
2019-12-05 20:00:00 11.2 4 Norte 9 Nordeste 0 -- -- 65
2019-12-05 19:00:00 12.6 3 Nordeste 19 Nordeste 0 -- -- 55
2019-12-05 18:00:00 14.5 11 Nordeste 23 Nordeste 0 -- -- 49
2019-12-05 17:00:00 15.5 15 Nordeste 24 Nordeste 0 -- -- 44
2019-12-05 16:00:00 16.5 15 Nordeste 27 Nordeste 0 -- -- 42
2019-12-05 15:00:00 16.6 13 Nordeste 27 Este 0 -- -- 43
2019-12-05 14:00:00 17.1 10 Nordeste 23 Este 0 -- -- 45
2019-12-05 13:00:00 15.4 11 Nordeste 20 Este 0 -- -- 49
2019-12-05 12:00:00 14.5 5 Este 12 Este 0 -- -- 54
2019-12-05 11:00:00 12.7 3 Oeste 6 Oeste 0 -- -- 62
2019-12-05 10:00:00 8.6 0 Calma 5 Sudeste 0 -- -- 84
2019-12-05 09:00:00 5.9 0 Calma 4 Este 0 -- -- 93
2019-12-05 08:00:00 5 0 Calma 6 Sudeste 0 -- -- 93
2019-12-05 07:00:00 4.4 0 Calma 5 Sur 0 -- -- 93
2019-12-05 06:00:00 5.1 0 Calma 4 Sur 0 -- -- 92
2019-12-05 05:00:00 6.2 0 Calma 4 Oeste 0 -- -- 91
2019-12-05 04:00:00 7.2 0 Calma 10 Noroeste 0 -- -- 85
2019-12-05 03:00:00 8.6 0 Calma 14 Norte 0 -- -- 77
2019-12-05 02:00:00 9 3 Norte 11 Nordeste 0 -- -- 82
2019-12-05 01:00:00 8.3 2 Norte 7 Norte 0 -- -- 86
2019-12-05 00:00:00 10.4 3 Noroeste 5 Noroeste 0 -- -- 83
2019-12-04 23:00:00 10.5 3 Noroeste 6 Noroeste 0 -- -- 85
2019-12-04 22:00:00 10.7 0 Calma 8 Norte 0 -- -- 83
2019-12-04 21:00:00 10.9 0 Calma 9 Norte 0 -- -- 82
2019-12-04 20:00:00 11.7 4 Norte 11 Norte 0 -- -- 75
2019-12-04 19:00:00 12.3 2 Oeste 5 Oeste 0 -- -- 70
2019-12-04 18:00:00 12.9 3 Oeste 7 Noroeste 0 -- -- 60
2019-12-04 17:00:00 13.7 3 Noroeste 9 Noroeste 0 -- -- 54
2019-12-04 16:00:00 14.9 0 Calma 6 Oeste 0 -- -- 50
2019-12-04 15:00:00 15.7 0 Calma 12 Este 0 -- -- 46
2019-12-04 14:00:00 13.5 6 Este 13 Este 0 -- -- 54
2019-12-04 13:00:00 13.7 4 Este 11 Nordeste 0 -- -- 53
2019-12-04 12:00:00 13.4 5 Nordeste 11 Nordeste 0 -- -- 56
2019-12-04 11:00:00 12.4 4 Nordeste 9 Este 0 -- -- 62
2019-12-04 10:00:00 10.2 3 Nordeste 6 Nordeste 0 -- -- 71
2019-12-04 09:00:00 6 0 Calma 6 Este 0 -- -- 87
2019-12-04 08:00:00 6.9 0 Calma 4 Nordeste 0 -- -- 83
2019-12-04 07:00:00 8.6 3 Nordeste 14 Este 0 -- -- 75
2019-12-04 06:00:00 8.4 9 Nordeste 19 Nordeste 0 -- -- 75
2019-12-04 05:00:00 8.9 9 Nordeste 15 Nordeste 0 -- -- 75
2019-12-04 04:00:00 9 6 Nordeste 15 Este 0 -- -- 75
2019-12-04 03:00:00 9.2 6 Nordeste 15 Nordeste 0 -- -- 76
2019-12-04 02:00:00 9.3 5 Nordeste 11 Nordeste 0 -- -- 78
2019-12-04 01:00:00 9.5 6 Nordeste 12 Nordeste 0 -- -- 76
2019-12-04 00:00:00 9.2 5 Este 7 Este 0 -- -- 83
2019-12-03 23:00:00 8.3 0 Calma 9 Nordeste 0 -- -- 76
2019-12-03 22:00:00 10.5 5 Nordeste 12 Nordeste 0 -- -- 69
2019-12-03 21:00:00 12.2 5 Nordeste 13 Este 0 -- -- 65
2019-12-03 20:00:00 12.6 4 Este 14 Este 0 -- -- 65
2019-12-03 19:00:00 12.8 4 Este 10 Este 0 -- -- 62
2019-12-03 18:00:00 13.2 4 Este 18 Este 0 -- -- 56
2019-12-03 17:00:00 14.8 8 Nordeste 18 Este 0 -- -- 50
2019-12-03 16:00:00 15.4 12 Este 21 Este 0 -- -- 48
2019-12-03 15:00:00 15.5 13 Este 22 Nordeste 0 -- -- 47
2019-12-03 14:00:00 15.6 12 Nordeste 23 Norte 0 -- -- 48
2019-12-03 13:00:00 14.9 13 Nordeste 24 Este 0 -- -- 49
2019-12-03 12:00:00 14.2 13 Nordeste 25 Nordeste 0 -- -- 50
2019-12-03 11:00:00 13.4 8 Nordeste 27 Nordeste 0 -- -- 53
2019-12-03 10:00:00 9.7 4 Norte 9 Noroeste 0 -- -- 65
2019-12-03 09:00:00 7.8 4 Nordeste 10 Nordeste 0 -- -- 80
2019-12-03 08:00:00 4.4 3 Nordeste 8 Nordeste 0 -- -- 85
2019-12-03 07:00:00 5.5 2 Norte 10 Noroeste 0 -- -- 80
2019-12-03 06:00:00 5.3 3 Oeste 6 Oeste 0 -- -- 85
2019-12-03 05:00:00 5.6 3 Noroeste 10 Noroeste 0 -- -- 84
2019-12-03 04:00:00 6.9 2 Este 8 Noroeste 0 -- -- 76
2019-12-03 03:00:00 7.1 0 Calma 12 Nordeste 0 -- -- 73
2019-12-03 02:00:00 9.2 8 Nordeste 14 Nordeste 0 -- -- 66
2019-12-03 01:00:00 9.4 5 Nordeste 13 Nordeste 0 -- -- 66
2019-12-03 00:00:00 9.9 6 Nordeste 11 Nordeste 0 -- -- 66
2019-12-02 23:00:00 9.9 3 Nordeste 18 Nordeste 0 -- -- 63
2019-12-02 22:00:00 10.1 4 Nordeste 8 Este 0 -- -- 65
2019-12-02 21:00:00 11.8 3 Nordeste 17 Nordeste 0 -- -- 61
2019-12-02 20:00:00 12.6 10 Nordeste 21 Nordeste 0 -- -- 56
2019-12-02 19:00:00 12.6 12 Nordeste 26 Nordeste 0 -- -- 55
2019-12-02 18:00:00 12.9 15 Nordeste 30 Nordeste 0 -- -- 54
2019-12-02 17:00:00 13.6 15 Nordeste 33 Nordeste 0 -- -- 50
2019-12-02 16:00:00 14.3 18 Nordeste 36 Nordeste 0 -- -- 49
2019-12-02 15:00:00 13.4 16 Nordeste 36 Este 0 -- -- 53
2019-12-02 14:00:00 13.6 18 Nordeste 35 Nordeste 0 -- -- 54
2019-12-02 13:00:00 13.6 18 Nordeste 36 Norte 0 -- -- 55
2019-12-02 12:00:00 12.7 19 Nordeste 34 Nordeste 0 -- -- 59
2019-12-02 11:00:00 12.2 13 Nordeste 25 Nordeste 0 -- -- 65
2019-12-02 10:00:00 10.5 7 Nordeste 14 Nordeste 0 -- -- 74
2019-12-02 09:00:00 9.8 5 Nordeste 12 Nordeste 0 -- -- 77
2019-12-02 08:00:00 9.5 4 Nordeste 11 Nordeste 0 -- -- 81
2019-12-02 07:00:00 9.2 3 Nordeste 17 Nordeste 0.1 -- -- 86
2019-12-02 06:00:00 8.8 5 Nordeste 12 Nordeste 0 -- -- 86
2019-12-02 05:00:00 8 0 Calma 8 Norte 0 -- -- 89
2019-12-02 04:00:00 7.7 0 Calma 10 Norte 0 -- -- 90
2019-12-02 03:00:00 8.9 7 Norte 17 Norte 0 -- -- 89
2019-12-02 02:00:00 7.5 0 Calma 7 Noroeste 0 -- -- 92
2019-12-02 01:00:00 8.5 0 Calma 9 Norte 0 -- -- 92
2019-12-02 00:00:00 8.2 4 Norte 11 Noroeste 0 -- -- 92
2019-12-01 23:00:00 8.2 3 Norte 7 Norte 0 -- -- 92
2019-12-01 22:00:00 8.2 4 Este 10 Nordeste 0 -- -- 91
2019-12-01 21:00:00 9.4 6 Este 10 Este 0 -- -- 91
2019-12-01 20:00:00 10.4 3 Este 9 Nordeste 0.2 -- -- 91
2019-12-01 19:00:00 10.5 5 Nordeste 11 Este 0.2 -- -- 90
2019-12-01 18:00:00 10.5 5 Nordeste 10 Este 0 -- -- 90
2019-12-01 17:00:00 10.7 0 Calma 15 Noroeste 1 -- -- 89
2019-12-01 16:00:00 11.1 8 Oeste 24 Sudoeste 5.3 -- -- 86
2019-12-01 15:00:00 16 12 Oeste 26 Sudoeste 0 -- -- 58
2019-12-01 14:00:00 15 15 Sudoeste 26 Oeste 0 -- -- 59
2019-12-01 13:00:00 14.4 13 Oeste 25 Sudoeste 0 -- -- 70
2019-12-01 12:00:00 12.8 14 Sudoeste 26 Sudoeste 0.1 -- -- 84
2019-12-01 11:00:00 12.8 13 Sudoeste 29 Sudoeste 0.5 -- -- 89
2019-12-01 10:00:00 12.2 15 Sudoeste 29 Sudoeste 0 -- -- 80
2019-12-01 09:00:00 11.4 12 Sudoeste 24 Sur 0 -- -- 84
2019-12-01 08:00:00 10.8 9 Sudoeste 24 Sudoeste 0.2 -- -- 89
2019-12-01 07:00:00 10.7 10 Sudoeste 28 Sudoeste 0.4 -- -- 89
2019-12-01 06:00:00 11.3 9 Sudoeste 19 Sudoeste 0 -- -- 80
2019-12-01 05:00:00 10 5 Sudoeste 12 Sudoeste 0 -- -- 90
2019-12-01 04:00:00 9.5 6 Sudoeste 14 Sudoeste 0 -- -- 91
2019-12-01 03:00:00 10 5 Sudoeste 14 Sudoeste 0 -- -- 91
2019-12-01 02:00:00 10 6 Sudoeste 17 Sudoeste 0 -- -- 92
2019-12-01 01:00:00 10.1 8 Sudoeste 16 Sudoeste 0 -- -- 92
2019-12-01 00:00:00 11.1 9 Sudoeste 19 Sudoeste 0.1 -- -- 92
2019-11-30 23:00:00 11.6 8 Sudoeste 18 Sudoeste 0 -- -- 92
2019-11-30 22:00:00 12.6 7 Sudoeste 17 Oeste 0 -- -- 90
2019-11-30 21:00:00 13.4 8 Sudoeste 16 Oeste 0 -- -- 91
2019-11-30 20:00:00 13.4 5 Oeste 43 Sudoeste 0.7 -- -- 91
2019-11-30 19:00:00 14.5 13 Sudoeste 30 Sudoeste 0 -- -- 82
2019-11-30 18:00:00 16 12 Sudoeste 29 Sudoeste 0 -- -- 66
2019-11-30 17:00:00 16.7 12 Sudoeste 26 Oeste 0 -- -- 61
2019-11-30 16:00:00 17.3 12 Sudoeste 26 Sudoeste 0 -- -- 59
2019-11-30 15:00:00 17.2 12 Sudoeste 28 Sudoeste 0 -- -- 58
2019-11-30 14:00:00 18 15 Sudoeste 26 Sur 0 -- -- 55
2019-11-30 13:00:00 17.6 12 Sudoeste 23 Sudoeste 0 -- -- 58
2019-11-30 12:00:00 16.4 10 Sur 17 Sur 0 -- -- 60
2019-11-30 11:00:00 15.1 0 Calma 8 Este 0 -- -- 75
2019-11-30 10:00:00 13 4 Este 8 Este 0 -- -- 85
2019-11-30 09:00:00 12.2 3 Este 6 Este 0 -- -- 91
2019-11-30 08:00:00 11.3 3 Este 6 Este 0 -- -- 92
2019-11-30 07:00:00 11.4 2 Este 7 Sur 0 -- -- 92
2019-11-30 06:00:00 10.5 4 Sudoeste 7 Sudoeste 0 -- -- 92
2019-11-30 05:00:00 13.2 3 Sudoeste 6 Sudoeste 0 -- -- 89
2019-11-30 04:00:00 13.2 4 Oeste 8 Sudoeste 0 -- -- 86
2019-11-30 03:00:00 14 5 Sudoeste 11 Sudoeste 0 -- -- 82
2019-11-30 02:00:00 14.6 5 Sudoeste 12 Sudoeste 0 -- -- 78
2019-11-30 01:00:00 14.1 4 Sur 11 Sudoeste 0 -- -- 78
2019-11-30 00:00:00 14.3 4 Sudoeste 9 Oeste 0 -- -- 76
2019-11-29 23:00:00 14.2 3 Sudoeste 7 Sudoeste 0 -- -- 77
2019-11-29 22:00:00 13.7 3 Sudoeste 6 Sudoeste 0 -- -- 82
2019-11-29 21:00:00 14.2 4 Sudoeste 10 Sudoeste 0 -- -- 75
2019-11-29 20:00:00 14 4 Sur 8 Sudoeste 0 -- -- 76
2019-11-29 19:00:00 15 0 Calma 5 Sudoeste 0 -- -- 74
2019-11-29 18:00:00 16.3 2 Sur 11 Sudoeste 0 -- -- 68
2019-11-29 17:00:00 17.4 5 Sudoeste 15 Sudoeste 0 -- -- 62
2019-11-29 16:00:00 17.8 9 Oeste 16 Sudoeste 0 -- -- 62
2019-11-29 15:00:00 17.6 10 Oeste 18 Oeste 0 -- -- 64
2019-11-29 14:00:00 17.6 8 Oeste 17 Oeste 0 -- -- 65
2019-11-29 13:00:00 17.7 6 Oeste 15 Oeste 0 -- -- 66
2019-11-29 12:00:00 17.1 8 Oeste 15 Sudoeste 0 -- -- 68
2019-11-29 11:00:00 16.6 5 Sudoeste 14 Sudoeste 0 -- -- 72
2019-11-29 10:00:00 14.7 0 Calma 4 Nordeste 0 -- -- 82
2019-11-29 09:00:00 14.3 3 Sur 9 Sur 0 -- -- 82
2019-11-29 08:00:00 14 4 Sur 10 Sudoeste 0 -- -- 83
2019-11-29 07:00:00 13.5 4 Oeste 13 Sudoeste 0 -- -- 85
2019-11-29 06:00:00 14 6 Sur 17 Sudoeste 0 -- -- 83
2019-11-29 05:00:00 13.7 8 Sudoeste 16 Sur 0 -- -- 84
2019-11-29 04:00:00 13 0 Calma 6 Oeste 0 -- -- 89
2019-11-29 03:00:00 13 5 Oeste 10 Sudoeste 0 -- -- 88
2019-11-29 02:00:00 12.9 5 Sudoeste 14 Sudoeste 0 -- -- 88
2019-11-29 01:00:00 13.8 6 Sudoeste 17 Sudoeste 0 -- -- 83
2019-11-29 00:00:00 14.3 6 Sudoeste 11 Sudoeste 0 -- -- 82
2019-11-28 23:00:00 13.4 5 Sudoeste 10 Sudoeste 0 -- -- 83
2019-11-28 22:00:00 13 3 Sudoeste 10 Sudoeste 0 -- -- 84
2019-11-28 21:00:00 12.6 0 Calma 8 Sudoeste 0 -- -- 86
2019-11-28 20:00:00 13.5 0 Calma 10 Sudoeste 0 -- -- 80
2019-11-28 19:00:00 14.1 4 Sudoeste 10 Sudoeste 0 -- -- 77
2019-11-28 18:00:00 15.1 6 Sudoeste 19 Sudoeste 0 -- -- 71
2019-11-28 17:00:00 16.1 12 Sudoeste 21 Sudoeste 0 -- -- 66
2019-11-28 16:00:00 16.2 12 Sudoeste 23 Sudoeste 0 -- -- 66
2019-11-28 15:00:00 16.6 13 Sudoeste 25 Sudoeste 0 -- -- 60
2019-11-28 14:00:00 17.3 12 Sudoeste 22 Oeste 0 -- -- 58
2019-11-28 13:00:00 16.5 12 Sudoeste 22 Sudoeste 0 -- -- 62
2019-11-28 12:00:00 17.6 7 Sudoeste 20 Sudoeste 0 -- -- 60
2019-11-28 11:00:00 15 3 Sudoeste 8 Este 0 -- -- 71
2019-11-28 10:00:00 13 4 Este 10 Este 0 -- -- 83
2019-11-28 09:00:00 11.9 5 Este 9 Este 0 -- -- 91
2019-11-28 08:00:00 10.7 5 Este 8 Este 0 -- -- 91
2019-11-28 07:00:00 11.3 0 Calma 8 Este 0 -- -- 91
2019-11-28 06:00:00 10.3 0 Calma 7 Este 0 -- -- 92
2019-11-28 05:00:00 9.5 0 Calma 3 Este 0 -- -- 93
2019-11-28 04:00:00 8.3 0 Calma 2 Sudeste 0 -- -- 93
2019-11-28 03:00:00 8.4 2 Sudoeste 8 Oeste 0 -- -- 92
2019-11-28 02:00:00 9.3 3 Oeste 10 Sudoeste 0 -- -- 90
2019-11-28 01:00:00 9.8 4 Sudoeste 10 Sudoeste 0 -- -- 89
2019-11-28 00:00:00 9.9 4 Sudoeste 12 Sudoeste 0 -- -- 88
2019-11-27 23:00:00 11 6 Sudoeste 17 Sudoeste 0 -- -- 85
2019-11-27 22:00:00 11.4 6 Sudoeste 15 Sudoeste 0 -- -- 84
2019-11-27 21:00:00 12.8 9 Sudoeste 17 Sudoeste 0 -- -- 80
2019-11-27 20:00:00 12.7 6 Sudoeste 12 Sudoeste 0 -- -- 82
2019-11-27 19:00:00 12.7 4 Sudoeste 9 Sudoeste 0 -- -- 78
2019-11-27 18:00:00 14.5 4 Sudoeste 12 Oeste 0 -- -- 63
2019-11-27 17:00:00 15.5 8 Oeste 19 Oeste 0 -- -- 57
2019-11-27 16:00:00 16.4 13 Oeste 23 Sudoeste 0 -- -- 53
2019-11-27 15:00:00 15.5 8 Oeste 30 Oeste 0 -- -- 60
2019-11-27 14:00:00 18.3 13 Sudoeste 24 Sudoeste 0 -- -- 51
2019-11-27 06:00:00 12.1 5 Sudoeste 17 Oeste 0 -- -- 92
2019-11-27 05:00:00 12.4 8 Sudoeste 19 Sudoeste 0.1 -- -- 92
2019-11-27 04:00:00 12.3 9 Oeste 23 Oeste 0 -- -- 91
2019-11-27 03:00:00 13.4 11 Sudoeste 20 Sudoeste 0.1 -- -- 92
2019-11-27 02:00:00 13.1 11 Oeste 24 Sudoeste 1.2 -- -- 92
2019-11-27 01:00:00 14.3 14 Sudoeste 24 Sudoeste 0 -- -- 83
2019-11-27 00:00:00 13.6 10 Sudoeste 22 Sudoeste 0 -- -- 84
2019-11-26 23:00:00 14 10 Sudoeste 24 Sudoeste 0 -- -- 88
2019-11-26 22:00:00 14.2 12 Sudoeste 22 Sudoeste 0 -- -- 90
2019-11-26 21:00:00 14.9 13 Sudoeste 24 Sudoeste 0 -- -- 90
2019-11-26 20:00:00 14.7 14 Oeste 31 Sudoeste 1.2 -- -- 92
2019-11-26 19:00:00 15.4 11 Sudoeste 25 Sur 0 -- -- 85
2019-11-26 18:00:00 15.7 8 Sudoeste 21 Sudoeste 0.2 -- -- 87
2019-11-26 17:00:00 15.3 14 Sudoeste 28 Sudoeste 1.6 -- -- 85
2019-11-26 16:00:00 18 9 Sudoeste 27 Sudoeste 0 -- -- 65
2019-11-26 15:00:00 18.2 10 Sudoeste 27 Sudoeste 0 -- -- 65
2019-11-26 14:00:00 18.2 14 Sudoeste 30 Sudoeste 0.4 -- -- 67
2019-11-26 13:00:00 18 12 Sudoeste 25 Oeste 0 -- -- 68
2019-11-26 12:00:00 16.6 11 Sudoeste 22 Sudoeste 0 -- -- 75
2019-11-26 11:00:00 15.3 7 Sudoeste 20 Sur 0 -- -- 84
2019-11-26 10:00:00 15 9 Sudoeste 20 Sur 0 -- -- 89
2019-11-26 09:00:00 13.4 4 Sur 14 Sudoeste 0.1 -- -- 92
2019-11-26 08:00:00 14.3 4 Este 10 Este 0.6 -- -- 93
2019-11-26 07:00:00 13.4 6 Este 11 Este 1.5 -- -- 92
2019-11-26 06:00:00 12.2 7 Este 13 Este 0.3 -- -- 92
2019-11-26 05:00:00 12.8 5 Este 8 Este 0 -- -- 91
2019-11-26 04:00:00 12.5 0 Calma 6 Este 0 -- -- 91
2019-11-26 03:00:00 12.6 0 Calma 5 Nordeste 0 -- -- 92
2019-11-26 02:00:00 12.2 0 Calma 6 Sudoeste 0 -- -- 92
2019-11-26 01:00:00 11.2 3 Sudoeste 9 Sudoeste 0 -- -- 92
2019-11-26 00:00:00 12.7 5 Sudoeste 12 Oeste 0 -- -- 90
2019-11-25 23:00:00 12.8 5 Sudoeste 12 Sudoeste 0 -- -- 89
2019-11-25 22:00:00 14.4 5 Sudoeste 10 Oeste 0 -- -- 85
2019-11-25 21:00:00 13.4 3 Sur 5 Sur 0 -- -- 89
2019-11-25 20:00:00 13 3 Oeste 6 Sudoeste 0 -- -- 89
2019-11-25 19:00:00 13.6 2 Sudoeste 10 Sudoeste 0 -- -- 83
2019-11-25 18:00:00 15.5 5 Sudoeste 18 Oeste 0 -- -- 71
2019-11-25 17:00:00 17.7 9 Oeste 20 Oeste 0 -- -- 62
2019-11-25 16:00:00 18.8 11 Oeste 30 Oeste 0 -- -- 60
2019-11-25 15:00:00 19.5 11 Oeste 30 Oeste 0 -- -- 60
2019-11-25 14:00:00 18.7 17 Oeste 31 Sudoeste 0 -- -- 62
2019-11-25 13:00:00 17 12 Oeste 25 Oeste 0 -- -- 72
2019-11-25 12:00:00 18.7 11 Oeste 22 Sudoeste 0 -- -- 71
2019-11-25 11:00:00 15.8 10 Oeste 17 Sudoeste 0.3 -- -- 92
2019-11-25 10:00:00 14.9 8 Sudoeste 23 Sudoeste 0 -- -- 92
2019-11-25 09:00:00 14.6 13 Oeste 26 Sudoeste 0.3 -- -- 93
2019-11-25 08:00:00 14.4 12 Sudoeste 23 Oeste 0.4 -- -- 92
2019-11-25 07:00:00 14.9 12 Sudoeste 30 Sudoeste 0.3 -- -- 92
2019-11-25 06:00:00 14.2 12 Sudoeste 30 Sudoeste 0.8 -- -- 92
2019-11-25 05:00:00 13.8 14 Sudoeste 30 Sudoeste 0.3 -- -- 91
2019-11-25 04:00:00 14 12 Sudoeste 23 Sudoeste 0 -- -- 88
2019-11-25 03:00:00 13.5 10 Sudoeste 28 Sudoeste 0 -- -- 88
2019-11-25 02:00:00 13.3 13 Sudoeste 26 Sudoeste 0 -- -- 88
2019-11-25 01:00:00 12.5 7 Sur 22 Oeste 0.6 -- -- 91
2019-11-25 00:00:00 13.2 9 Sudoeste 23 Sudoeste 0 -- -- 82
2019-11-24 23:00:00 12.6 11 Sudoeste 28 Sudoeste 0 -- -- 85
2019-11-24 22:00:00 14.1 13 Sudoeste 26 Sudoeste 0 -- -- 70
2019-11-24 21:00:00 13.9 9 Sudoeste 18 Sudoeste 0 -- -- 71
2019-11-24 20:00:00 12.9 4 Sudoeste 16 Sudoeste 0 -- -- 74
2019-11-24 19:00:00 13.4 5 Sudoeste 12 Sudoeste 0 -- -- 68
2019-11-24 18:00:00 13.8 5 Sudoeste 15 Sudoeste 0 -- -- 66
2019-11-24 17:00:00 14.4 7 Sudoeste 18 Oeste 0 -- -- 62
2019-11-24 16:00:00 14.3 11 Oeste 19 Sudoeste 0 -- -- 61
2019-11-24 15:00:00 15 9 Oeste 23 Oeste 0 -- -- 56
2019-11-24 14:00:00 14.2 8 Oeste 15 Oeste 0 -- -- 62
2019-11-24 13:00:00 14.7 7 Oeste 18 Oeste 0 -- -- 61
2019-11-24 12:00:00 13.2 5 Oeste 12 Oeste 0 -- -- 66
2019-11-24 11:00:00 10.8 3 Noroeste 8 Noroeste 0 -- -- 76
2019-11-24 10:00:00 6.8 2 Noroeste 5 Oeste 0 -- -- 95
2019-11-24 09:00:00 5.5 0 Calma 4 Sudoeste 0 -- -- 95
2019-11-24 08:00:00 2.4 0 Calma 4 Sudoeste 0 -- -- 95
2019-11-24 07:00:00 4.2 2 Sudoeste 7 Oeste 0 -- -- 95
2019-11-24 06:00:00 5 3 Sudoeste 7 Sudoeste 0 -- -- 95
2019-11-24 05:00:00 3.9 3 Oeste 9 Sudoeste 0 -- -- 95
2019-11-24 04:00:00 5.2 5 Sudoeste 9 Oeste 0 -- -- 95
2019-11-24 03:00:00 4.6 0 Calma 7 Oeste 0 -- -- 95
2019-11-24 02:00:00 6.4 5 Sudoeste 11 Sudoeste 0 -- -- 93
2019-11-24 01:00:00 6.9 5 Sudoeste 14 Sudoeste 0 -- -- 90
2019-11-24 00:00:00 7.1 6 Sudoeste 17 Sudoeste 0 -- -- 89
2019-11-23 23:00:00 7.9 6 Sudoeste 17 Sudoeste 0 -- -- 89
2019-11-23 22:00:00 7.6 5 Oeste 12 Sudoeste 0 -- -- 89
2019-11-23 21:00:00 8.3 6 Sur 14 Sudoeste 0 -- -- 84
2019-11-23 20:00:00 9.4 6 Sudoeste 15 Sudoeste 0 -- -- 75
2019-11-23 19:00:00 10.7 7 Oeste 18 Oeste 0 -- -- 65
2019-11-23 18:00:00 12.6 8 Noroeste 26 Oeste 0 -- -- 52
2019-11-23 17:00:00 13.9 14 Oeste 31 Oeste 0 -- -- 48
2019-11-23 16:00:00 15.6 15 Oeste 31 Oeste 0 -- -- 45
2019-11-23 15:00:00 15.2 12 Oeste 31 Oeste 0 -- -- 46
2019-11-23 14:00:00 15 15 Oeste 32 Noroeste 0 -- -- 48
2019-11-23 13:00:00 14.3 15 Oeste 33 Oeste 0 -- -- 52
2019-11-23 12:00:00 13.8 19 Oeste 34 Oeste 0 -- -- 61
2019-11-23 11:00:00 12.5 22 Oeste 37 Oeste 0 -- -- 68
2019-11-23 10:00:00 11.1 19 Sudoeste 33 Sudoeste 0 -- -- 75
2019-11-23 09:00:00 9.5 13 Sudoeste 24 Sudoeste 0 -- -- 85
2019-11-23 08:00:00 8.6 13 Sudoeste 23 Sudoeste 0 -- -- 88
2019-11-23 07:00:00 9.3 13 Oeste 26 Oeste 0 -- -- 83
2019-11-23 06:00:00 9.7 11 Oeste 33 Oeste 0 -- -- 78
2019-11-23 05:00:00 9.9 13 Oeste 30 Sudoeste 0 -- -- 80
2019-11-23 04:00:00 10.4 21 Oeste 32 Oeste 0 -- -- 77
2019-11-23 03:00:00 11.4 17 Oeste 36 Oeste 0 -- -- 78
2019-11-23 02:00:00 11.5 14 Oeste 46 Sudoeste 0 -- -- 80
2019-11-23 01:00:00 12.1 25 Oeste 55 Oeste 0.1 -- -- 80
2019-11-23 00:00:00 12.5 23 Sudoeste 43 Oeste 0.5 -- -- 76
2019-11-22 23:00:00 12.9 21 Sudoeste 37 Sudoeste 0 -- -- 73
2019-11-22 22:00:00 12.5 16 Sudoeste 36 Oeste 0 -- -- 76
2019-11-22 21:00:00 13.3 21 Oeste 46 Oeste 0 -- -- 73
2019-11-22 20:00:00 12.7 19 Oeste 45 Oeste 0.2 -- -- 87
2019-11-22 19:00:00 14.5 22 Oeste 38 Sudoeste 0 -- -- 66
2019-11-22 18:00:00 14.8 26 Oeste 39 Oeste 0 -- -- 65
2019-11-22 17:00:00 16.1 17 Oeste 41 Oeste 0 -- -- 60
2019-11-22 16:00:00 17.1 24 Oeste 49 Oeste 0 -- -- 59
2019-11-22 15:00:00 15.5 12 Sudoeste 36 Sudoeste 1.7 -- -- 88
2019-11-22 14:00:00 14.5 19 Sudoeste 56 Sudoeste 3.6 -- -- 90
2019-11-22 13:00:00 16 28 Sur 57 Sudoeste 2.1 -- -- 84
2019-11-22 12:00:00 15 27 Sudoeste 55 Sudoeste 0.3 -- -- 80
2019-11-22 11:00:00 14.5 23 Sudoeste 47 Sudoeste 7.4 -- -- 85
2019-11-22 10:00:00 13.3 18 Sur 30 Sur 5.9 -- -- 89
2019-11-22 09:00:00 12.4 13 Sur 26 Sur 1.3 -- -- 88
2019-11-22 08:00:00 12.6 13 Sur 20 Sur 0.1 -- -- 84
2019-11-22 07:00:00 11.2 6 Este 20 Sur 0.8 -- -- 88
2019-11-22 06:00:00 12.2 12 Sur 23 Sur 0.2 -- -- 84
2019-11-22 05:00:00 11 9 Sudeste 15 Sudeste 0.3 -- -- 90
2019-11-22 04:00:00 10.5 8 Este 10 Este 0 -- -- 92
2019-11-22 03:00:00 10.3 0 Calma 5 Este 0 -- -- 92
2019-11-22 02:00:00 10.2 0 Calma 5 Sudeste 0 -- -- 92
2019-11-22 01:00:00 10.2 4 Sudeste 9 Sudeste 0 -- -- 91
2019-11-22 00:00:00 10.3 3 Sudeste 10 Sudeste 0 -- -- 93
2019-11-21 23:00:00 9.3 4 Este 8 Este 0 -- -- 93
2019-11-21 22:00:00 10.7 6 Sudeste 10 Sudeste 0 -- -- 92
2019-11-21 21:00:00 10.5 4 Sudeste 8 Sudeste 0 -- -- 92
2019-11-21 20:00:00 10.9 6 Sudeste 9 Sudeste 0 -- -- 90
2019-11-21 19:00:00 12 5 Sudeste 7 Sudeste 0 -- -- 88
2019-11-21 18:00:00 13 3 Sudeste 9 Sur 0 -- -- 80
2019-11-21 17:00:00 13.6 6 Sur 10 Sur 0 -- -- 76
2019-11-21 16:00:00 14.3 3 Sudoeste 13 Oeste 2.4 -- -- 74
2019-11-21 15:00:00 14 5 Oeste 12 Sudoeste 0 -- -- 71
2019-11-21 14:00:00 14.5 6 Sudoeste 16 Sudoeste 0 -- -- 68
2019-11-21 13:00:00 13.7 5 Sudoeste 13 Sudoeste 0 -- -- 76
2019-11-21 12:00:00 13.2 4 Sur 9 Sudoeste 0 -- -- 85
2019-11-21 11:00:00 11.4 3 Sudoeste 8 Sudoeste 0.1 -- -- 92
2019-11-21 10:00:00 10.1 3 Sudoeste 10 Sudoeste 0.2 -- -- 93
2019-11-21 09:00:00 8.7 0 Calma 11 Norte 0.7 -- -- 93
2019-11-21 08:00:00 10.4 2 Sur 10 Este 1.3 -- -- 92
2019-11-21 07:00:00 9.6 6 Este 10 Este 0.2 -- -- 92
2019-11-21 06:00:00 9.2 3 Nordeste 5 Nordeste 0 -- -- 93
2019-11-21 05:00:00 8.7 0 Calma 5 Este 0 -- -- 92
2019-11-21 04:00:00 9.4 3 Este 11 Oeste 0 -- -- 91
2019-11-21 03:00:00 10.4 6 Sudoeste 17 Sudoeste 0 -- -- 88
2019-11-21 02:00:00 10.2 5 Sudoeste 16 Sudoeste 0 -- -- 88
2019-11-21 01:00:00 9.7 0 Calma 11 Sudoeste 0 -- -- 91
2019-11-21 00:00:00 10.1 4 Sur 11 Sudoeste 0 -- -- 89
2019-11-20 23:00:00 8.8 5 Sur 7 Sur 0.1 -- -- 93
2019-11-20 22:00:00 8.2 4 Este 6 Este 0 -- -- 93
2019-11-20 21:00:00 9.8 2 Sur 12 Sudeste 0.3 -- -- 92
2019-11-20 20:00:00 10 5 Sudeste 10 Este 0 -- -- 90
2019-11-20 19:00:00 10.2 5 Nordeste 10 Nordeste 0 -- -- 88
2019-11-20 18:00:00 10.6 4 Nordeste 9 Nordeste 0 -- -- 86
2019-11-20 17:00:00 12.1 4 Nordeste 8 Nordeste 0 -- -- 80
2019-11-20 16:00:00 11.4 5 Este 13 Nordeste 0 -- -- 83
2019-11-20 15:00:00 10.1 4 Nordeste 21 Este 0 -- -- 86
2019-11-20 14:00:00 10.2 13 Este 21 Este 0 -- -- 86
2019-11-20 13:00:00 8.3 12 Este 23 Sudeste 1 -- -- 89
2019-11-20 12:00:00 8.8 13 Este 22 Este 0.4 -- -- 89
2019-11-20 11:00:00 8.1 14 Sudeste 25 Sudeste 0.1 -- -- 88
2019-11-20 10:00:00 7.7 15 Este 24 Este 1.3 -- -- 92
2019-11-20 09:00:00 7.5 12 Sudeste 19 Sudeste 2.7 -- -- 92
2019-11-20 08:00:00 7.3 8 Este 12 Este 0.5 -- -- 91
2019-11-20 07:00:00 7.3 6 Este 13 Este 1.6 -- -- 89
2019-11-20 06:00:00 7.5 10 Este 14 Este 0 -- -- 84
2019-11-20 05:00:00 7.3 9 Este 15 Este 0 -- -- 85
2019-11-20 04:00:00 6.9 9 Este 14 Este 0 -- -- 88
2019-11-20 03:00:00 6.4 10 Este 14 Este 0 -- -- 92
2019-11-20 02:00:00 5.5 8 Este 11 Este 0 -- -- 92
2019-11-20 01:00:00 5.8 8 Este 11 Este 0 -- -- 92
2019-11-20 00:00:00 6.3 0 Calma 12 Este 0 -- -- 91
2019-11-19 23:00:00 6.4 6 Este 9 Este 0 -- -- 90
2019-11-19 22:00:00 7.1 6 Este 10 Este 0 -- -- 90
2019-11-19 21:00:00 7.3 5 Este 7 Este 0 -- -- 85
2019-11-19 20:00:00 8.2 5 Sudeste 7 Sudeste 0 -- -- 84
2019-11-19 19:00:00 7.7 4 Sudeste 5 Sudeste 0 -- -- 81
2019-11-19 18:00:00 10.8 2 Nordeste 4 Este 0 -- -- 66
2019-11-19 17:00:00 12 2 Este 6 Este 0 -- -- 61
2019-11-19 16:00:00 12.6 3 Nordeste 7 Este 0 -- -- 60
2019-11-19 15:00:00 11.6 3 Nordeste 7 Norte 0 -- -- 63
2019-11-19 14:00:00 11.3 4 Este 8 Este 0 -- -- 65
2019-11-19 13:00:00 10 2 Nordeste 5 Nordeste 0 -- -- 68
2019-11-19 12:00:00 9 3 Este 9 Este 0 -- -- 74
2019-11-19 11:00:00 7.7 5 Este 8 Este 0 -- -- 82
2019-11-19 10:00:00 6.6 5 Este 8 Este 0 -- -- 88
2019-11-19 09:00:00 4.7 3 Este 7 Este 0 -- -- 93
2019-11-19 08:00:00 3.6 3 Nordeste 7 Este 0 -- -- 95
2019-11-19 07:00:00 2.4 4 Este 9 Este 0 -- -- 94
2019-11-19 06:00:00 3.6 6 Este 8 Este 0 -- -- 95
2019-11-19 05:00:00 2.1 0 Calma 3 Este 0 -- -- 95
2019-11-19 04:00:00 2.2 0 Calma 3 Noroeste 0 -- -- 95
2019-11-19 03:00:00 2.7 0 Calma 4 Sur 0 -- -- 93
2019-11-19 02:00:00 3.3 0 Calma 10 Este 0 -- -- 92
2019-11-19 01:00:00 5 3 Este 10 Este 0 -- -- 91
2019-11-19 00:00:00 4.7 0 Calma 5 Sudoeste 0 -- -- 90
2019-11-18 23:00:00 5.6 0 Calma 8 Sudoeste 0 -- -- 88
2019-11-18 22:00:00 6.1 4 Sudoeste 8 Sudoeste 0 -- -- 87
2019-11-18 21:00:00 6.3 0 Calma 7 Sur 0 -- -- 84
2019-11-18 20:00:00 6.4 0 Calma 4 Sur 0 -- -- 82
2019-11-18 19:00:00 8.7 0 Calma 8 Noroeste 0 -- -- 70
2019-11-18 18:00:00 13 4 Oeste 11 Noroeste 0 -- -- 50
2019-11-18 17:00:00 14.5 5 Noroeste 17 Noroeste 0 -- -- 42
2019-11-18 16:00:00 15.5 5 Norte 14 Noroeste 0 -- -- 38
2019-11-18 15:00:00 15.6 4 Noroeste 14 Noroeste 0 -- -- 42
2019-11-18 14:00:00 15.3 5 Noroeste 14 Norte 0 -- -- 42
2019-11-18 13:00:00 15.2 2 Noroeste 13 Norte 0 -- -- 43
2019-11-18 12:00:00 14.2 4 Noroeste 14 Oeste 0 -- -- 49
2019-11-18 11:00:00 11.9 6 Oeste 18 Oeste 0 -- -- 60
2019-11-18 10:00:00 8.5 10 Oeste 20 Oeste 0 -- -- 74
2019-11-18 09:00:00 6.1 6 Sudoeste 19 Oeste 0 -- -- 90
2019-11-18 08:00:00 4.6 6 Sudoeste 18 Oeste 0 -- -- 91
2019-11-18 07:00:00 4.8 10 Sudoeste 17 Sudoeste 0 -- -- 90
2019-11-18 06:00:00 4.8 7 Sudoeste 14 Sudoeste 0 -- -- 91
2019-11-18 05:00:00 5.6 6 Oeste 15 Sudoeste 0 -- -- 90
2019-11-18 04:00:00 6.8 9 Oeste 19 Oeste 0 -- -- 86
2019-11-18 03:00:00 7.6 10 Oeste 21 Oeste 0 -- -- 86
2019-11-18 02:00:00 7.7 7 Oeste 13 Oeste 0 -- -- 89
2019-11-18 01:00:00 8.9 6 Oeste 21 Oeste 0 -- -- 84
2019-11-18 00:00:00 11.8 13 Noroeste 24 Oeste 0 -- -- 88
2019-11-17 23:00:00 12.3 15 Oeste 26 Sudoeste 0.1 -- -- 92
2019-11-17 22:00:00 12.6 15 Oeste 36 Oeste 1.1 -- -- 92
2019-11-17 21:00:00 12.5 16 Sudoeste 32 Sudoeste 0.1 -- -- 89
2019-11-17 20:00:00 13.3 17 Sudoeste 31 Sudoeste 0 -- -- 91
2019-11-17 19:00:00 12.9 15 Sudoeste 33 Oeste 0.8 -- -- 91
2019-11-17 18:00:00 11.4 13 Oeste 24 Oeste 7.9 -- -- 93
2019-11-17 17:00:00 13.4 7 Sudoeste 14 Sudoeste 1 -- -- 92
2019-11-17 16:00:00 12 0 Calma 5 Oeste 0.3 -- -- 92
2019-11-17 15:00:00 13.6 2 Oeste 8 Oeste 0.1 -- -- 93
2019-11-17 14:00:00 11.3 0 Calma 6 Sudeste 0.1 -- -- 93
2019-11-17 13:00:00 10.7 0 Calma 6 Nordeste 0.7 -- -- 94
2019-11-17 12:00:00 9.7 3 Nordeste 7 Nordeste 1.5 -- -- 95
2019-11-17 11:00:00 8.7 4 Nordeste 7 Este 0.3 -- -- 95
2019-11-17 10:00:00 8.4 5 Este 11 Este 0.3 -- -- 95
2019-11-17 09:00:00 6.3 6 Este 15 Este 0.6 -- -- 95
2019-11-17 08:00:00 7.9 6 Sudeste 13 Sudeste 0.4 -- -- 95
2019-11-17 07:00:00 7.3 0 Calma 8 Sudoeste 0.2 -- -- 95
2019-11-17 06:00:00 7.2 4 Oeste 14 Oeste 0.3 -- -- 93
2019-11-17 05:00:00 7.5 5 Oeste 11 Oeste 0 -- -- 81
2019-11-17 04:00:00 7.3 5 Sudoeste 10 Sudoeste 0 -- -- 82
2019-11-17 03:00:00 5.6 2 Sudoeste 5 Sudoeste 0 -- -- 86
2019-11-17 02:00:00 4.4 0 Calma 4 Oeste 0 -- -- 83
2019-11-17 01:00:00 5.2 4 Oeste 11 Sudoeste 0 -- -- 81
2019-11-17 00:00:00 5 6 Sudoeste 13 Oeste 0 -- -- 78
2019-11-16 23:00:00 6.5 6 Sudoeste 17 Sudoeste 0 -- -- 74
2019-11-16 22:00:00 6.9 7 Sudoeste 16 Sudoeste 0 -- -- 71
2019-11-16 21:00:00 7.9 5 Sudoeste 11 Sudoeste 0 -- -- 67
2019-11-16 20:00:00 4.9 4 Sur 11 Sudoeste 0 -- -- 67
2019-11-16 19:00:00 9.3 8 Sudoeste 15 Sudoeste 0 -- -- 50
2019-11-16 18:00:00 12.3 11 Oeste 24 Sudoeste 0 -- -- 41
2019-11-16 17:00:00 14.1 14 Oeste 28 Oeste 0 -- -- 37
2019-11-16 16:00:00 14.6 7 Oeste 23 Oeste 0 -- -- 37
2019-11-16 15:00:00 14.5 11 Sudoeste 25 Sudoeste 0 -- -- 38
2019-11-16 14:00:00 13.7 5 Oeste 17 Sudoeste 0 -- -- 40
2019-11-16 13:00:00 12.5 7 Oeste 15 Noroeste 0 -- -- 45
2019-11-16 12:00:00 10.6 3 Noroeste 11 Oeste 0 -- -- 50
2019-11-16 11:00:00 9.2 3 Sudoeste 13 Sudoeste 0 -- -- 56
2019-11-16 10:00:00 6.6 7 Sudoeste 12 Oeste 0 -- -- 69
2019-11-16 09:00:00 3 6 Sudoeste 10 Oeste 0 -- -- 84
2019-11-16 08:00:00 0.8 5 Sudoeste 12 Sudoeste 0 -- -- 93
2019-11-16 07:00:00 0.4 4 Oeste 11 Sudoeste 0 -- -- 92
2019-11-16 06:00:00 1.1 5 Sudoeste 11 Sudoeste 0 -- -- 92
2019-11-16 05:00:00 1.8 7 Sudoeste 14 Sudoeste 0 -- -- 91
2019-11-16 04:00:00 2.2 6 Sudoeste 14 Oeste 0 -- -- 90
2019-11-16 03:00:00 2.5 7 Sudoeste 14 Sudoeste 0 -- -- 88
2019-11-16 02:00:00 2.4 5 Sudoeste 11 Sudoeste 0 -- -- 83
2019-11-16 01:00:00 3.3 6 Sudoeste 11 Sudoeste 0 -- -- 77
2019-11-16 00:00:00 3 5 Sudoeste 9 Oeste 0 -- -- 76
2019-11-15 23:00:00 3.3 4 Sudoeste 11 Sudoeste 0 -- -- 74
2019-11-15 22:00:00 5 5 Sudoeste 12 Noroeste 0 -- -- 61
2019-11-15 21:00:00 7.9 5 Noroeste 10 Oeste 0 -- -- 52
2019-11-15 20:00:00 8.1 4 Noroeste 12 Noroeste 0 -- -- 48
2019-11-15 19:00:00 9.3 5 Noroeste 18 Noroeste 0 -- -- 42
2019-11-15 18:00:00 11 9 Noroeste 25 Noroeste 0 -- -- 38
2019-11-15 17:00:00 12.5 12 Noroeste 26 Noroeste 0 -- -- 37
2019-11-15 16:00:00 13.5 11 Noroeste 27 Oeste 0 -- -- 36
2019-11-15 15:00:00 14.1 9 Noroeste 26 Oeste 0 -- -- 38
2019-11-15 14:00:00 13.4 7 Noroeste 28 Noroeste 0 -- -- 40
2019-11-15 13:00:00 12.5 10 Noroeste 31 Oeste 0 -- -- 42
2019-11-15 12:00:00 11.5 13 Noroeste 28 Noroeste 0 -- -- 45
2019-11-15 11:00:00 8.6 10 Oeste 27 Noroeste 0 -- -- 59
2019-11-15 10:00:00 7.3 15 Oeste 24 Oeste 0 -- -- 75
2019-11-15 09:00:00 6.1 10 Sudoeste 20 Sudoeste 0 -- -- 84
2019-11-15 08:00:00 4.5 11 Sudoeste 19 Sudoeste 0 -- -- 88
2019-11-15 07:00:00 4.6 10 Sudoeste 19 Sudoeste 0 -- -- 90
2019-11-15 06:00:00 4.8 11 Sudoeste 21 Sudoeste 0 -- -- 90
2019-11-15 05:00:00 4.8 10 Sudoeste 20 Sudoeste 0 -- -- 89
2019-11-15 04:00:00 5.4 12 Sudoeste 21 Oeste 0 -- -- 84
2019-11-15 03:00:00 5.9 12 Oeste 24 Oeste 0 -- -- 81
2019-11-15 02:00:00 6.2 13 Oeste 25 Oeste 0 -- -- 78
2019-11-15 01:00:00 6.6 14 Sudoeste 27 Oeste 0 -- -- 75
2019-11-15 00:00:00 7.5 15 Oeste 30 Sudoeste 0 -- -- 72